createdAt,value
2018-10-16T00:02:07.080Z,25.07
2018-10-16T00:04:38.791Z,25.05
2018-10-16T00:07:10.695Z,25.08
2018-10-16T00:09:42.831Z,24.96
2018-10-16T00:12:14.930Z,24.98
2018-10-16T00:14:46.877Z,24.96
2018-10-16T00:17:20.290Z,24.94
2018-10-16T00:19:52.392Z,24.76
2018-10-16T00:22:24.945Z,24.85
2018-10-16T00:24:56.980Z,24.83
2018-10-16T00:27:28.748Z,24.84
2018-10-16T00:30:00.874Z,24.96
2018-10-16T00:32:32.781Z,24.93
2018-10-16T00:35:04.953Z,24.90
2018-10-16T00:37:37.197Z,24.95
2018-10-16T00:40:10.069Z,24.90
2018-10-16T00:42:42.398Z,25.01
2018-10-16T00:45:14.310Z,25.05
2018-10-16T00:47:46.606Z,25.06
2018-10-16T00:50:18.758Z,25.07
2018-10-16T00:52:51.113Z,25.10
2018-10-16T00:55:23.205Z,25.06
2018-10-16T00:57:55.178Z,25.07
2018-10-16T01:00:27.184Z,25.10
2018-10-16T01:02:59.073Z,25.15
2018-10-16T01:05:30.960Z,25.22
2018-10-16T01:08:03.185Z,25.32
2018-10-16T01:10:35.205Z,25.43
2018-10-16T01:13:07.031Z,25.53
2018-10-16T01:15:39.141Z,25.67
2018-10-16T01:18:12.333Z,25.83
2018-10-16T01:20:44.280Z,25.92
2018-10-16T01:23:17.157Z,26.09
2018-10-16T01:25:49.163Z,26.15
2018-10-16T01:28:21.382Z,26.33
2018-10-16T01:30:53.061Z,26.40
2018-10-16T01:33:25.210Z,26.47
2018-10-16T01:35:56.960Z,26.61
2018-10-16T01:38:29.016Z,26.57
2018-10-16T01:41:01.005Z,26.70
2018-10-16T01:43:33.279Z,26.92
2018-10-16T01:46:05.060Z,27.12
2018-10-16T01:48:37.442Z,27.29
2018-10-16T01:51:09.930Z,27.31
2018-10-16T01:53:42.733Z,27.42
2018-10-16T01:56:14.722Z,27.51
2018-10-16T01:58:46.898Z,27.66
2018-10-16T02:01:19.009Z,27.78
2018-10-16T02:03:50.952Z,27.82
2018-10-16T02:06:23.157Z,27.94
2018-10-16T02:08:55.073Z,27.80
2018-10-16T02:11:26.839Z,27.77
2018-10-16T02:13:58.807Z,28.05
2018-10-16T02:16:30.685Z,28.07
2018-10-16T02:19:03.283Z,28.21
2018-10-16T02:21:34.978Z,28.26
2018-10-16T02:24:07.630Z,28.10
2018-10-16T02:26:39.780Z,28.12
2018-10-16T02:29:11.886Z,28.25
2018-10-16T02:31:43.959Z,28.30
2018-10-16T02:34:16.230Z,28.29
2018-10-16T02:36:48.224Z,28.32
2018-10-16T02:39:20.316Z,28.51
2018-10-16T02:41:52.806Z,28.44
2018-10-16T02:44:25.055Z,28.34
2018-10-16T02:46:57.019Z,28.48
2018-10-16T02:49:29.109Z,28.59
2018-10-16T02:52:01.246Z,28.41
2018-10-16T02:54:34.043Z,28.49
2018-10-16T02:57:06.082Z,28.61
2018-10-16T02:59:38.048Z,28.79
2018-10-16T03:02:09.826Z,28.73
2018-10-16T03:04:42.076Z,29.05
2018-10-16T03:07:14.033Z,29.12
2018-10-16T03:09:46.143Z,29.41
2018-10-16T03:12:17.862Z,29.58
2018-10-16T03:14:49.944Z,29.51
2018-10-16T03:17:21.619Z,29.54
2018-10-16T03:19:54.441Z,29.84
2018-10-16T03:22:26.172Z,29.82
2018-10-16T03:24:58.858Z,29.84
2018-10-16T03:27:30.731Z,29.99
2018-10-16T03:30:02.876Z,30.16
2018-10-16T03:32:34.904Z,30.35
2018-10-16T03:35:07.453Z,30.37
2018-10-16T03:37:40.540Z,30.39
2018-10-16T03:40:13.521Z,30.51
2018-10-16T03:42:45.599Z,30.57
2018-10-16T03:45:17.873Z,30.53
2018-10-16T03:47:49.935Z,30.80
2018-10-16T03:50:21.970Z,30.74
2018-10-16T03:52:54.053Z,30.68
2018-10-16T03:55:26.405Z,30.88
2018-10-16T03:57:58.309Z,30.83
2018-10-16T04:00:30.476Z,30.72
2018-10-16T04:03:02.631Z,31.02
2018-10-16T04:05:34.887Z,31.03
2018-10-16T04:08:07.159Z,31.13
2018-10-16T04:10:39.301Z,31.30
2018-10-16T04:13:11.501Z,31.17
2018-10-16T04:15:43.380Z,31.22
2018-10-16T04:18:15.515Z,31.48
2018-10-16T04:20:48.244Z,31.56
2018-10-16T04:23:20.348Z,31.85
2018-10-16T04:25:53.284Z,31.80
2018-10-16T04:28:25.089Z,31.93
2018-10-16T04:30:57.149Z,32.27
2018-10-16T04:33:29.223Z,31.84
2018-10-16T04:36:01.131Z,32.07
2018-10-16T04:38:33.199Z,32.35
2018-10-16T04:41:05.277Z,32.34
2018-10-16T04:43:37.280Z,32.37
2018-10-16T04:46:09.214Z,32.66
2018-10-16T04:48:41.295Z,32.73
2018-10-16T04:51:13.561Z,32.86
2018-10-16T04:53:45.554Z,32.85
2018-10-16T04:56:18.528Z,32.98
2018-10-16T04:58:50.652Z,33.18
2018-10-16T05:01:22.865Z,32.99
2018-10-16T05:03:54.937Z,33.23
2018-10-16T05:06:27.302Z,33.35
2018-10-16T05:08:59.424Z,33.69
2018-10-16T05:11:31.739Z,33.73
2018-10-16T05:14:03.735Z,33.39
2018-10-16T05:16:35.887Z,33.41
2018-10-16T05:19:08.219Z,33.33
2018-10-16T05:21:40.681Z,33.51
2018-10-16T05:24:13.042Z,33.28
2018-10-16T05:26:45.573Z,33.72
2018-10-16T05:29:17.716Z,33.59
2018-10-16T05:31:49.805Z,33.80
2018-10-16T05:34:21.880Z,33.88
2018-10-16T05:36:54.813Z,33.79
2018-10-16T05:39:27.111Z,33.94
2018-10-16T05:41:59.423Z,33.95
2018-10-16T05:44:31.660Z,34.12
2018-10-16T05:47:03.929Z,34.04
2018-10-16T05:49:36.242Z,34.20
2018-10-16T05:52:08.219Z,34.38
2018-10-16T05:54:40.289Z,34.26
2018-10-16T05:57:13.012Z,34.60
2018-10-16T05:59:45.028Z,34.47
2018-10-16T06:02:17.385Z,34.83
2018-10-16T06:04:49.362Z,34.82
2018-10-16T06:07:21.753Z,34.97
2018-10-16T06:09:53.662Z,35.11
2018-10-16T06:12:25.588Z,35.27
2018-10-16T06:14:57.625Z,35.48
2018-10-16T06:17:29.845Z,35.08
2018-10-16T06:20:02.044Z,35.34
2018-10-16T06:22:34.150Z,35.59
2018-10-16T06:25:05.825Z,35.52
2018-10-16T06:27:38.206Z,35.28
2018-10-16T06:30:11.070Z,35.44
2018-10-16T06:32:43.108Z,35.88
2018-10-16T06:35:15.417Z,35.96
2018-10-16T06:37:47.535Z,36.03
2018-10-16T06:40:19.641Z,35.75
2018-10-16T06:42:51.714Z,36.03
2018-10-16T06:45:24.043Z,36.32
2018-10-16T06:47:56.339Z,35.97
2018-10-16T06:50:28.521Z,35.83
2018-10-16T06:53:00.426Z,36.00
2018-10-16T06:55:32.400Z,36.42
2018-10-16T06:58:05.233Z,36.41
2018-10-16T07:00:37.362Z,36.62
2018-10-16T07:03:09.554Z,36.99
2018-10-16T07:05:41.604Z,36.91
2018-10-16T07:08:13.531Z,36.57
2018-10-16T07:10:46.290Z,36.75
2018-10-16T07:13:18.317Z,37.02
2018-10-16T07:15:50.937Z,36.73
2018-10-16T07:18:23.202Z,36.73
2018-10-16T07:20:55.487Z,36.62
2018-10-16T07:23:28.087Z,36.10
2018-10-16T07:26:00.461Z,36.10
2018-10-16T07:28:33.258Z,36.63
2018-10-16T07:31:05.724Z,37.07
2018-10-16T07:33:37.854Z,36.84
2018-10-16T07:36:09.780Z,37.02
2018-10-16T07:38:41.976Z,37.34
2018-10-16T07:41:14.008Z,37.18
2018-10-16T07:43:46.219Z,37.40
2018-10-16T07:46:18.623Z,37.57
2018-10-16T07:48:50.914Z,37.84
2018-10-16T07:51:23.116Z,37.83
2018-10-16T07:53:55.159Z,38.16
2018-10-16T07:56:28.190Z,37.93
2018-10-16T07:59:00.651Z,37.79
2018-10-16T08:01:32.694Z,37.76
2018-10-16T08:04:04.891Z,37.99
2018-10-16T08:06:37.023Z,38.50
2018-10-16T08:09:14.463Z,38.77
2018-10-16T08:14:39.213Z,38.15
2018-10-16T08:17:11.614Z,37.88
2018-10-16T08:19:43.882Z,38.09
2018-10-16T08:22:15.810Z,38.81
2018-10-16T08:24:47.890Z,39.19
2018-10-16T08:27:19.372Z,39.07
2018-10-16T08:29:51.464Z,39.32
2018-10-16T08:32:23.181Z,39.51
2018-10-16T08:34:56.011Z,40.13
2018-10-16T08:37:41.573Z,39.77
2018-10-16T08:40:14.212Z,39.16
2018-10-16T08:44:56.552Z,38.69
2018-10-16T08:47:38.654Z,39.02
2018-10-16T08:50:20.684Z,39.23
2018-10-16T08:52:52.897Z,39.57
2018-10-16T08:55:25.054Z,39.40
2018-10-16T08:57:56.987Z,39.20
2018-10-16T09:00:29.782Z,39.13
2018-10-16T09:03:01.813Z,39.41
2018-10-16T09:05:33.701Z,38.81
2018-10-16T09:08:05.844Z,38.44
2018-10-16T09:10:37.771Z,39.01
2018-10-16T09:13:10.126Z,39.70
2018-10-16T09:15:42.072Z,39.77
2018-10-16T09:18:14.569Z,40.28
2018-10-16T09:20:46.765Z,40.26
2018-10-16T09:23:18.897Z,39.72
2018-10-16T09:25:50.916Z,39.29
2018-10-16T09:28:23.149Z,39.83
2018-10-16T09:30:55.720Z,39.87
2018-10-16T09:33:28.030Z,39.40
2018-10-16T09:36:00.413Z,39.75
2018-10-16T09:38:32.588Z,39.24
2018-10-16T09:41:05.654Z,39.36
2018-10-16T09:43:38.001Z,39.22
2018-10-16T09:46:09.790Z,39.73
2018-10-16T09:48:43.198Z,39.42
2018-10-16T09:51:15.164Z,39.13
2018-10-16T09:53:47.201Z,39.17
2018-10-16T09:56:19.216Z,39.97
2018-10-16T09:58:51.297Z,40.34
2018-10-16T10:01:28.382Z,39.87
2018-10-16T10:04:00.616Z,39.53
2018-10-16T10:06:32.570Z,40.20
2018-10-16T10:09:05.636Z,40.24
2018-10-16T10:11:37.995Z,40.50
2018-10-16T10:14:10.576Z,40.09
2018-10-16T10:16:42.442Z,40.44
2018-10-16T10:19:14.744Z,40.92
2018-10-16T10:21:47.118Z,40.34
2018-10-16T10:24:19.265Z,40.82
2018-10-16T10:26:52.139Z,41.16
2018-10-16T10:29:24.417Z,40.49
2018-10-16T10:31:57.802Z,41.15
2018-10-16T10:34:29.993Z,41.37
2018-10-16T10:37:02.069Z,41.61
2018-10-16T10:39:34.320Z,40.98
2018-10-16T10:42:06.530Z,39.61
2018-10-16T10:44:38.790Z,39.46
2018-10-16T10:47:11.007Z,39.01
2018-10-16T10:49:44.872Z,38.57
2018-10-16T10:52:17.301Z,38.81
2018-10-16T10:54:49.786Z,38.93
2018-10-16T10:57:22.021Z,38.87
2018-10-16T10:59:54.746Z,39.27
2018-10-16T11:02:27.824Z,39.50
2018-10-16T11:04:59.947Z,39.57
2018-10-16T11:07:32.237Z,39.38
2018-10-16T11:10:04.830Z,39.30
2018-10-16T11:12:37.074Z,39.24
2018-10-16T11:15:09.529Z,39.05
2018-10-16T11:17:41.913Z,38.61
2018-10-16T11:20:14.514Z,38.18
2018-10-16T11:22:46.657Z,38.05
2018-10-16T11:25:18.467Z,37.63
2018-10-16T11:27:50.455Z,37.64
2018-10-16T11:30:22.768Z,37.23
2018-10-16T11:32:55.800Z,36.84
2018-10-16T11:35:27.885Z,36.82
2018-10-16T11:38:00.251Z,36.49
2018-10-16T11:40:32.589Z,36.28
2018-10-16T11:43:04.945Z,36.10
2018-10-16T11:45:37.628Z,35.95
2018-10-16T11:48:09.706Z,35.68
2018-10-16T11:50:42.040Z,35.47
2018-10-16T11:53:14.156Z,35.37
2018-10-16T11:55:46.534Z,35.22
2018-10-16T11:58:18.783Z,35.17
2018-10-16T12:00:51.133Z,34.91
2018-10-16T12:03:23.763Z,34.70
2018-10-16T12:05:57.679Z,34.49
2018-10-16T12:08:29.573Z,34.34
2018-10-16T12:11:02.286Z,34.19
2018-10-16T12:13:34.494Z,34.03
2018-10-16T12:16:07.033Z,33.92
2018-10-16T12:18:46.122Z,33.77
2018-10-16T12:21:23.174Z,33.46
2018-10-16T12:23:55.275Z,33.39
2018-10-16T12:26:27.299Z,33.31
2018-10-16T12:28:59.888Z,33.25
2018-10-16T12:31:32.518Z,33.26
2018-10-16T12:34:05.000Z,33.26
2018-10-16T12:36:37.319Z,33.20
2018-10-16T12:39:11.646Z,33.28
2018-10-16T12:41:44.045Z,33.17
2018-10-16T12:44:15.950Z,33.01
2018-10-16T12:46:48.561Z,32.88
2018-10-16T12:49:20.840Z,32.71
2018-10-16T12:51:53.194Z,32.58
2018-10-16T12:54:26.964Z,32.48
2018-10-16T12:56:59.321Z,32.43
2018-10-16T12:59:32.003Z,32.42
2018-10-16T13:02:04.441Z,32.40
2018-10-16T13:04:37.235Z,32.33
2018-10-16T13:07:15.355Z,32.31
2018-10-16T13:09:47.522Z,32.21
2018-10-16T13:12:19.655Z,32.20
2018-10-16T13:14:51.801Z,32.25
2018-10-16T13:17:24.233Z,32.17
2018-10-16T13:19:56.539Z,32.18
2018-10-16T13:22:29.302Z,32.08
2018-10-16T13:25:01.437Z,32.03
2018-10-16T13:27:34.599Z,31.97
2018-10-16T13:30:07.850Z,31.97
2018-10-16T13:32:40.727Z,31.90
2018-10-16T13:35:15.128Z,31.91
2018-10-16T13:37:48.839Z,31.83
2018-10-16T13:40:21.068Z,31.79
2018-10-16T13:42:53.404Z,31.67
2018-10-16T13:45:25.928Z,31.58
2018-10-16T13:47:58.610Z,31.50
2018-10-16T13:50:31.327Z,31.39
2018-10-16T13:53:04.173Z,31.13
2018-10-16T13:55:36.939Z,31.20
2018-10-16T13:58:09.874Z,31.06
2018-10-16T14:00:42.467Z,31.16
2018-10-16T14:03:15.451Z,31.29
2018-10-16T14:05:48.569Z,31.18
2018-10-16T14:08:21.385Z,31.06
2018-10-16T14:10:54.070Z,31.06
2018-10-16T14:13:27.717Z,31.02
2018-10-16T14:16:00.137Z,30.91
2018-10-16T14:18:33.360Z,30.78
2018-10-16T14:21:06.665Z,30.73
2018-10-16T14:23:39.539Z,30.74
2018-10-16T14:26:12.702Z,30.61
2018-10-16T14:28:45.345Z,30.52
2018-10-16T14:31:17.965Z,30.50
2018-10-16T14:33:50.813Z,30.44
2018-10-16T14:36:23.319Z,30.41
2018-10-16T14:38:56.202Z,30.52
2018-10-16T14:41:28.443Z,30.43
2018-10-16T14:44:00.876Z,30.41
2018-10-16T14:46:33.434Z,30.46
2018-10-16T14:49:05.953Z,30.37
2018-10-16T14:51:38.529Z,30.35
2018-10-16T14:54:11.145Z,30.24
2018-10-16T14:56:43.446Z,30.17
2018-10-16T14:59:16.368Z,30.07
2018-10-16T15:01:48.863Z,30.10
2018-10-16T15:04:21.739Z,30.14
2018-10-16T15:06:54.669Z,30.11
2018-10-16T15:09:27.580Z,30.05
2018-10-16T15:11:59.648Z,30.09
2018-10-16T15:14:32.431Z,30.10
2018-10-16T15:17:05.359Z,30.05
2018-10-16T15:19:39.037Z,30.10
2018-10-16T15:22:11.788Z,30.03
2018-10-16T15:24:44.415Z,29.98
2018-10-16T15:27:17.231Z,29.82
2018-10-16T15:29:50.836Z,29.86
2018-10-16T15:32:23.414Z,29.85
2018-10-16T15:34:55.958Z,29.80
2018-10-16T15:37:29.051Z,29.73
2018-10-16T15:40:01.844Z,29.71
2018-10-16T15:42:34.176Z,29.61
2018-10-16T15:45:07.787Z,29.39
2018-10-16T15:47:41.132Z,29.41
2018-10-16T15:50:13.703Z,29.50
2018-10-16T15:52:46.727Z,29.62
2018-10-16T15:55:18.893Z,29.70
2018-10-16T15:57:51.542Z,29.68
2018-10-16T16:00:24.623Z,29.69
2018-10-16T16:02:57.017Z,29.66
2018-10-16T16:05:29.929Z,29.71
2018-10-16T16:08:02.567Z,29.72
2018-10-16T16:10:34.985Z,29.68
2018-10-16T16:13:10.404Z,29.70
2018-10-16T16:15:43.233Z,29.72
2018-10-16T16:18:15.318Z,29.70
2018-10-16T16:20:48.055Z,29.63
2018-10-16T16:23:20.004Z,29.67
2018-10-16T16:25:52.173Z,29.68
2018-10-16T16:28:24.136Z,29.77
2018-10-16T16:30:57.396Z,29.68
2018-10-16T16:33:29.400Z,29.63
2018-10-16T16:36:01.693Z,29.53
2018-10-16T16:38:34.248Z,29.53
2018-10-16T16:41:06.563Z,29.36
2018-10-16T16:43:38.391Z,29.38
2018-10-16T16:46:10.384Z,29.38
2018-10-16T16:48:42.758Z,29.37
2018-10-16T16:51:14.630Z,29.35
2018-10-16T16:53:46.706Z,29.34
2018-10-16T16:56:18.719Z,29.28
2018-10-16T16:58:50.887Z,29.30
2018-10-16T17:01:23.317Z,29.19
2018-10-16T17:03:56.739Z,29.24
2018-10-16T17:06:28.863Z,29.16
2018-10-16T17:09:01.219Z,29.15
2018-10-16T17:11:33.983Z,29.22
2018-10-16T17:14:06.451Z,29.22
2018-10-16T17:16:38.787Z,29.19
2018-10-16T17:19:10.717Z,29.24
2018-10-16T17:21:43.280Z,29.16
2018-10-16T17:24:15.304Z,29.23
2018-10-16T17:26:47.445Z,29.16
2018-10-16T17:29:19.150Z,29.13
2018-10-16T17:31:51.360Z,29.15
2018-10-16T17:34:23.466Z,29.13
2018-10-16T17:36:55.611Z,29.11
2018-10-16T17:39:28.210Z,29.18
2018-10-16T17:42:00.765Z,29.24
2018-10-16T17:44:32.850Z,29.19
2018-10-16T17:47:05.090Z,29.18
2018-10-16T17:49:37.570Z,29.17
2018-10-16T17:52:09.779Z,29.16
2018-10-16T17:54:41.690Z,29.17
2018-10-16T17:57:13.785Z,29.15
2018-10-16T17:59:45.558Z,29.15
2018-10-16T18:02:17.737Z,29.17
2018-10-16T18:04:49.814Z,29.18
2018-10-16T18:07:21.990Z,29.16
2018-10-16T18:09:54.589Z,29.08
2018-10-16T18:12:26.827Z,29.09
2018-10-16T18:14:59.020Z,29.08
2018-10-16T18:17:31.135Z,29.08
2018-10-16T18:20:03.206Z,29.10
2018-10-16T18:22:36.004Z,29.16
2018-10-16T18:25:08.401Z,29.17
2018-10-16T18:27:40.746Z,29.20
2018-10-16T18:30:13.173Z,29.22
2018-10-16T18:32:45.368Z,29.15
2018-10-16T18:35:17.506Z,29.06
2018-10-16T18:37:49.863Z,29.04
2018-10-16T18:40:22.621Z,28.99
2018-10-16T18:42:54.854Z,28.91
2018-10-16T18:45:26.680Z,28.86
2018-10-16T18:47:58.800Z,28.84
2018-10-16T18:50:30.801Z,28.75
2018-10-16T18:53:02.896Z,28.72
2018-10-16T18:55:35.032Z,28.64
2018-10-16T18:58:07.047Z,28.64
2018-10-16T19:00:38.840Z,28.61
2018-10-16T19:03:11.072Z,28.63
2018-10-16T19:05:43.297Z,28.56
2018-10-16T19:08:15.348Z,28.59
2018-10-16T19:10:47.869Z,28.57
2018-10-16T19:13:20.041Z,28.46
2018-10-16T19:15:51.972Z,28.48
2018-10-16T19:18:25.090Z,28.40
2018-10-16T19:20:57.348Z,28.43
2018-10-16T19:23:30.146Z,28.32
2018-10-16T19:26:02.192Z,28.38
2018-10-16T19:28:33.894Z,28.39
2018-10-16T19:31:05.977Z,28.43
2018-10-16T19:33:37.989Z,28.30
2018-10-16T19:36:10.917Z,28.31
2018-10-16T19:38:43.103Z,28.35
2018-10-16T19:41:15.679Z,28.19
2018-10-16T19:43:47.941Z,28.24
2018-10-16T19:46:20.051Z,28.21
2018-10-16T19:48:52.188Z,28.15
2018-10-16T19:51:24.417Z,28.14
2018-10-16T19:53:56.464Z,28.19
2018-10-16T19:56:28.276Z,28.19
2018-10-16T19:59:00.497Z,28.11
2018-10-16T20:01:32.639Z,28.14
2018-10-16T20:04:05.213Z,28.12
2018-10-16T20:06:37.147Z,28.04
2018-10-16T20:09:12.174Z,27.97
2018-10-16T20:11:44.655Z,28.09
2018-10-16T20:14:17.127Z,28.12
2018-10-16T20:16:49.910Z,28.08
2018-10-16T20:19:22.065Z,28.08
2018-10-16T20:21:54.236Z,27.99
2018-10-16T20:24:28.536Z,27.98
2018-10-16T20:27:00.581Z,27.85
2018-10-16T20:29:32.759Z,27.83
2018-10-16T20:32:05.196Z,27.77
2018-10-16T20:34:37.400Z,27.84
2018-10-16T20:37:09.334Z,27.80
2018-10-16T20:39:41.210Z,27.75
2018-10-16T20:42:13.707Z,27.80
2018-10-16T20:44:45.772Z,27.80
2018-10-16T20:47:17.865Z,27.81
2018-10-16T20:49:49.989Z,27.80
2018-10-16T20:52:22.907Z,27.77
2018-10-16T20:54:55.537Z,27.71
2018-10-16T20:57:28.101Z,27.65
2018-10-16T21:00:02.279Z,27.73
2018-10-16T21:02:34.472Z,27.74
2018-10-16T21:05:07.841Z,27.77
2018-10-16T21:07:39.679Z,27.68
2018-10-16T21:10:11.760Z,27.71
2018-10-16T21:12:44.316Z,27.46
2018-10-16T21:15:16.407Z,27.43
2018-10-16T21:17:48.416Z,27.29
2018-10-16T21:20:20.794Z,27.27
2018-10-16T21:22:52.954Z,27.31
2018-10-16T21:25:26.432Z,27.29
2018-10-16T21:27:58.752Z,27.25
2018-10-16T21:30:31.259Z,27.28
2018-10-16T21:33:04.006Z,27.17
2018-10-16T21:35:36.149Z,27.12
2018-10-16T21:38:08.273Z,27.05
2018-10-16T21:40:40.603Z,27.10
2018-10-16T21:43:13.136Z,27.08
2018-10-16T21:45:45.714Z,27.08
2018-10-16T21:48:17.701Z,27.13
2018-10-16T21:50:50.026Z,27.09
2018-10-16T21:53:22.005Z,26.91
2018-10-16T21:55:55.253Z,26.71
2018-10-16T21:58:27.356Z,26.66
2018-10-16T22:01:04.100Z,26.72
2018-10-16T22:03:36.120Z,26.70
2018-10-16T22:06:08.177Z,26.75
2018-10-16T22:08:40.207Z,26.67
2018-10-16T22:11:12.514Z,26.69
2018-10-16T22:13:44.795Z,26.59
2018-10-16T22:16:16.840Z,26.48
2018-10-16T22:18:49.736Z,26.49
2018-10-16T22:21:21.917Z,26.57
2018-10-16T22:23:53.885Z,26.48
2018-10-16T22:26:27.103Z,26.48
2018-10-16T22:28:59.737Z,26.52
2018-10-16T22:31:31.982Z,26.47
2018-10-16T22:34:03.678Z,26.55
2018-10-16T22:36:35.852Z,26.37
2018-10-16T22:39:09.982Z,26.28
2018-10-16T22:41:42.042Z,26.32
2018-10-16T22:44:14.758Z,26.40
2018-10-16T22:46:46.677Z,26.38
2018-10-16T22:49:18.689Z,26.31
2018-10-16T22:51:50.607Z,26.38
2018-10-16T22:54:22.663Z,26.35
2018-10-16T22:56:55.038Z,26.23
2018-10-16T22:59:27.194Z,26.25
2018-10-16T23:01:59.382Z,26.17
2018-10-16T23:04:31.488Z,26.17
2018-10-16T23:07:03.426Z,26.20
2018-10-16T23:09:35.592Z,26.21
2018-10-16T23:12:08.099Z,26.26
2018-10-16T23:14:40.749Z,26.23
2018-10-16T23:17:13.141Z,26.07
2018-10-16T23:19:44.866Z,26.12
2018-10-16T23:22:17.009Z,25.98
2018-10-16T23:24:48.992Z,25.99
2018-10-16T23:27:21.295Z,25.99
2018-10-16T23:29:53.336Z,25.99
2018-10-16T23:32:25.446Z,26.04
2018-10-16T23:34:57.346Z,26.12
2018-10-16T23:37:29.543Z,26.11
2018-10-16T23:40:01.601Z,26.13
2018-10-16T23:42:33.383Z,26.12
2018-10-16T23:45:05.848Z,26.13
2018-10-16T23:47:37.968Z,26.17
2018-10-16T23:50:09.865Z,26.13
2018-10-16T23:52:41.713Z,26.20
2018-10-16T23:55:13.935Z,26.32
2018-10-16T23:57:46.278Z,26.23
